Time;durP1;ratioP1;P1;durP2;ratioP2;P2;SDS_P1;SDS_P2;PMS_P1;PMS_P2;Temp;Humidity;BMP_temperature;BMP_pressure;BME280_temperature;BME280_humidity;BME280_pressure;Samples;Min_cycle;Max_cycle;Signal;HPM_P1;HPM_P2
2022/08/18 00:00:18;;;;;;;;;17.33;14.33;;;;;22.31;65.05;100796.63;5059351;28;46824;-64
2022/08/18 00:02:44;;;;;;;;;17.00;15.00;;;;;22.36;64.62;100807.63;5059450;28;45347;-64
2022/08/18 00:05:13;;;;;;;;;23.00;17.67;;;;;22.36;64.96;100808.44;5059503;28;45581;-64
2022/08/18 00:07:38;;;;;;;;;15.67;15.67;;;;;21.82;64.49;100706.13;5059789;28;45496;-64
2022/08/18 00:10:05;;;;;;;;;16.00;15.33;;;;;22.37;64.71;100822.81;5059112;28;46301;-64
2022/08/18 00:12:38;;;;;;;;;15.67;14.33;;;;;22.31;64.50;100800.16;5059242;28;45463;-63
2022/08/18 00:15:07;;;;;;;;;21.00;18.33;;;;;22.25;64.76;100786.69;5059520;28;45422;-63
2022/08/18 00:17:35;;;;;;;;;17.33;15.67;;;;;22.33;64.76;100811.59;5059367;28;45437;-63
2022/08/18 00:20:01;;;;;;;;;21.67;18.67;;;;;22.27;65.12;100795.41;5059058;28;46637;-64
2022/08/18 00:22:26;;;;;;;;;16.67;16.33;;;;;22.23;65.27;100788.78;5059169;28;45473;-64
2022/08/18 00:24:54;;;;;;;;;16.67;16.00;;;;;22.29;65.26;100799.56;5059141;28;45236;-64
2022/08/18 00:27:23;;;;;;;;;17.00;17.00;;;;;22.26;65.28;100793.75;5059361;28;45157;-64
2022/08/18 00:29:50;;;;;;;;;15.00;13.67;;;;;22.30;65.56;100805.78;5058942;28;46530;-64
2022/08/18 00:32:20;;;;;;;;;16.67;16.67;;;;;22.05;65.33;100765.16;5059082;28;45445;-63
2022/08/18 00:34:45;;;;;;;;;15.00;15.00;;;;;21.91;65.26;100742.72;5059293;28;45229;-64
2022/08/18 00:37:11;;;;;;;;;19.00;17.33;;;;;22.24;65.59;100791.25;5059230;28;45307;-66
2022/08/18 00:39:36;;;;;;;;;17.00;16.00;;;;;22.11;65.28;100770.50;5058805;28;45727;-64
2022/08/18 00:42:24;;;;;;;;;16.33;16.33;;;;;22.25;65.46;100792.91;5058848;28;45241;-63
2022/08/18 00:44:50;;;;;;;;;15.33;15.33;;;;;22.15;65.67;100782.56;5057984;28;46429;-63
2022/08/18 00:47:15;;;;;;;;;21.33;20.33;;;;;22.23;65.82;100810.44;5058764;28;45369;-64
2022/08/18 00:49:42;;;;;;;;;17.33;16.00;;;;;22.20;66.21;100802.72;5058418;28;45488;-63
2022/08/18 00:52:10;;;;;;;;;17.67;16.00;;;;;22.19;66.25;100817.31;5058632;28;45415;-63
2022/08/18 00:54:40;;;;;;;;;16.67;16.67;;;;;21.58;66.09;100715.84;5058733;28;45287;-64
2022/08/18 00:57:07;;;;;;;;;20.33;16.33;;;;;21.58;65.84;100715.00;5058685;28;45390;-63
2022/08/18 00:59:41;;;;;;;;;17.67;14.67;;;;;22.11;66.39;100816.53;5058299;28;46755;-62
2022/08/18 01:02:11;;;;;;;;;21.33;20.00;;;;;22.10;66.11;100817.59;5058377;28;45255;-63
2022/08/18 01:04:56;;;;;;;;;14.67;14.33;;;;;22.11;66.06;100818.41;5058592;28;45603;-63
2022/08/18 01:07:31;;;;;;;;;16.33;15.00;;;;;21.71;66.25;100745.53;5058448;28;45299;-63
2022/08/18 01:10:00;;;;;;;;;17.33;16.00;;;;;21.55;65.72;100718.97;5058194;28;45501;-63
2022/08/18 01:12:27;;;;;;;;;19.67;17.00;;;;;22.07;66.26;100814.50;5058248;28;45357;-64
2022/08/18 01:14:53;;;;;;;;;15.33;15.00;;;;;21.76;66.15;100766.53;5058383;28;45260;-64
2022/08/18 01:23:03;;;;;;;;;16.67;14.00;;;;;22.04;66.03;100795.94;5058063;28;45199;-64
2022/08/18 01:28:18;;;;;;;;;15.67;15.67;;;;;21.66;66.13;100739.13;5058230;28;45384;-64
2022/08/18 01:30:48;;;;;;;;;16.33;13.33;;;;;22.02;66.14;100806.13;5058047;28;46489;-65
2022/08/18 01:33:15;;;;;;;;;9.00;6.33;;;;;20.57;66.21;100572.38;5057882;28;45484;-64
2022/08/18 01:35:48;;;;;;;;;15.33;14.67;;;;;22.00;66.10;100810.94;5057916;28;45485;-64
2022/08/18 01:38:18;;;;;;;;;16.33;16.33;;;;;21.96;66.19;100815.13;5057958;28;45389;-64
2022/08/18 01:40:45;;;;;;;;;16.67;16.33;;;;;21.98;66.33;100822.00;5057673;28;45774;-64
2022/08/18 01:43:12;;;;;;;;;13.33;13.33;;;;;21.93;66.42;100813.69;5057726;28;45617;-64
2022/08/18 01:45:38;;;;;;;;;14.33;14.33;;;;;21.99;66.68;100814.69;5057835;28;45496;-64
2022/08/18 01:48:03;;;;;;;;;17.67;17.67;;;;;21.95;65.91;100813.47;5057756;28;45258;-64
2022/08/18 01:50:32;;;;;;;;;17.67;13.67;;;;;21.95;66.59;100813.47;5057451;28;47295;-64
2022/08/18 01:52:58;;;;;;;;;16.67;15.67;;;;;21.96;66.29;100821.38;5057563;28;45303;-64
2022/08/18 01:55:25;;;;;;;;;19.67;15.67;;;;;21.37;66.21;100737.78;5056448;28;45433;-64
2022/08/18 01:57:51;;;;;;;;;19.00;15.67;;;;;21.93;66.38;100827.22;5057781;28;45289;-64
2022/08/18 02:00:17;;;;;;;;;15.33;14.67;;;;;21.93;66.31;100821.81;5056420;28;68120;-63
2022/08/18 02:02:43;;;;;;;;;21.33;19.33;;;;;21.86;66.24;100802.09;5057347;28;45378;-64
2022/08/18 02:05:17;;;;;;;;;21.33;20.00;;;;;21.84;66.49;100823.13;5073322;28;45382;-64
2022/08/18 02:07:42;;;;;;;;;18.00;16.33;;;;;21.91;66.01;100826.63;5057368;28;45465;-63
2022/08/18 02:10:09;;;;;;;;;18.67;18.67;;;;;21.91;65.55;100815.78;5055642;28;48409;-63
2022/08/18 02:12:35;;;;;;;;;19.33;16.33;;;;;21.89;65.78;100809.78;5056421;28;45717;-64
2022/08/18 02:15:01;;;;;;;;;15.33;15.33;;;;;21.89;65.83;100820.59;5057511;28;45442;-64
2022/08/18 02:17:26;;;;;;;;;20.67;15.67;;;;;21.89;65.46;100823.31;5057519;28;45158;-64
2022/08/18 02:19:52;;;;;;;;;17.33;16.00;;;;;21.89;65.76;100823.31;5057390;28;46631;-64
2022/08/18 02:22:19;;;;;;;;;19.00;17.33;;;;;21.89;65.63;100823.31;5057460;28;45470;-64
2022/08/18 02:24:45;;;;;;;;;19.67;19.67;;;;;21.86;65.45;100832.69;5072984;28;45336;-64
2022/08/18 02:27:12;;;;;;;;;21.33;18.00;;;;;21.87;65.30;100833.53;5057280;28;45552;-63
2022/08/18 02:29:38;;;;;;;;;18.67;15.67;;;;;21.75;65.20;100825.25;5056936;28;46761;-65
2022/08/18 02:32:05;;;;;;;;;16.33;14.00;;;;;21.49;64.54;100782.91;5057049;28;45318;-64
2022/08/18 02:34:30;;;;;;;;;15.67;14.67;;;;;21.78;64.11;100840.22;5057393;28;45287;-63
2022/08/18 02:37:00;;;;;;;;;14.67;14.33;;;;;21.53;64.10;100805.78;5057172;28;45553;-64
2022/08/18 02:39:27;;;;;;;;;15.33;15.00;;;;;21.49;64.06;100806.41;5056943;28;46819;-64
2022/08/18 02:41:52;;;;;;;;;19.67;16.67;;;;;21.48;64.21;100805.59;5056555;28;45303;-64
2022/08/18 02:44:18;;;;;;;;;15.00;14.67;;;;;21.53;64.26;100821.16;5056969;28;45430;-63
2022/08/18 02:46:44;;;;;;;;;11.00;10.67;;;;;21.58;64.12;100834.88;5057146;28;45454;-64
2022/08/18 02:49:09;;;;;;;;;13.33;12.33;;;;;21.15;63.90;100769.66;5056685;28;45819;-64
2022/08/18 02:51:35;;;;;;;;;12.00;12.00;;;;;21.30;64.01;100805.44;5057000;28;45413;-65
2022/08/18 02:54:00;;;;;;;;;12.67;12.67;;;;;21.45;63.98;100832.25;5057285;28;45315;-64
2022/08/18 02:56:29;;;;;;;;;18.67;16.33;;;;;21.46;63.68;100831.19;5057025;28;45262;-64
2022/08/18 02:59:02;;;;;;;;;18.00;17.00;;;;;20.89;63.56;100744.38;5056651;28;45761;-64
2022/08/18 03:01:31;;;;;;;;;15.33;14.67;;;;;21.41;63.52;100823.69;5056747;28;45515;-64
2022/08/18 03:03:59;;;;;;;;;14.33;14.33;;;;;21.29;63.93;100802.94;5056768;28;45350;-64
2022/08/18 03:06:26;;;;;;;;;10.33;8.00;;;;;21.45;63.76;100824.97;5057136;28;45482;-64
2022/08/18 03:08:52;;;;;;;;;15.00;15.00;;;;;21.35;63.70;100812.91;5056432;28;45849;-64
2022/08/18 03:11:22;;;;;;;;;39.00;35.67;;;;;20.87;63.54;100724.84;5056493;28;45378;-64
2022/08/18 03:13:48;;;;;;;;;14.00;14.00;;;;;21.43;63.52;100821.63;5056883;28;45335;-64
2022/08/18 03:16:17;;;;;;;;;18.67;17.33;;;;;21.31;63.72;100804.41;5056513;28;45468;-64
2022/08/18 03:18:45;;;;;;;;;15.33;14.67;;;;;21.40;63.94;100819.34;5056520;28;47491;-64
2022/08/18 03:21:16;;;;;;;;;13.33;13.33;;;;;21.42;63.84;100825.34;5056624;28;45275;-64
2022/08/18 03:23:42;;;;;;;;;14.67;13.33;;;;;20.93;63.78;100740.22;5059822;28;45254;-64
2022/08/18 03:26:10;;;;;;;;;16.00;15.33;;;;;21.42;63.76;100811.84;5060162;28;45283;-64
2022/08/18 03:28:37;;;;;;;;;15.00;13.33;;;;;21.38;64.07;100796.25;5075285;28;47062;-64
2022/08/18 03:31:02;;;;;;;;;17.00;16.00;;;;;21.30;64.01;100789.22;5059988;28;45422;-64
2022/08/18 03:33:27;;;;;;;;;15.33;14.00;;;;;21.43;63.68;100800.00;5060073;28;46101;-64
2022/08/18 03:35:53;;;;;;;;;12.00;12.00;;;;;21.38;63.75;100804.38;5060114;28;45349;-64
2022/08/18 03:38:18;;;;;;;;;16.33;13.33;;;;;21.46;63.85;100825.78;5059677;28;47862;-64
2022/08/18 03:40:50;;;;;;;;;16.67;15.33;;;;;21.42;63.85;100814.53;5058487;28;45866;-64
2022/08/18 03:43:16;;;;;;;;;15.00;14.00;;;;;21.39;63.94;100804.16;5059878;28;45373;-64
2022/08/18 03:45:41;;;;;;;;;20.00;17.33;;;;;21.40;63.62;100803.09;5058633;28;45415;-64
2022/08/18 03:48:07;;;;;;;;;15.00;15.00;;;;;21.28;63.83;100785.91;5059468;28;46777;-64
2022/08/18 03:50:32;;;;;;;;;14.33;14.33;;;;;21.45;63.87;100811.44;5058224;28;45400;-64
2022/08/18 03:52:58;;;;;;;;;13.67;12.67;;;;;21.34;63.83;100793.16;5058127;28;45273;-64
2022/08/18 03:55:26;;;;;;;;;16.67;14.33;;;;;21.37;64.01;100800.84;5059932;28;45480;-64
2022/08/18 03:57:54;;;;;;;;;16.33;16.33;;;;;21.24;63.65;100780.09;5059468;28;46886;-64
2022/08/18 04:00:20;;;;;;;;;17.33;16.00;;;;;21.40;63.83;100796.88;5058128;28;45389;-64
2022/08/18 04:02:45;;;;;;;;;17.00;16.00;;;;;21.45;63.73;100808.72;5041370;28;45380;-64
2022/08/18 04:05:13;;;;;;;;;19.00;17.67;;;;;21.44;63.87;100808.94;5059771;28;45349;-64
2022/08/18 04:07:39;;;;;;;;;17.33;15.00;;;;;21.31;63.66;100780.06;5058855;28;45976;-64
2022/08/18 04:10:04;;;;;;;;;20.33;17.00;;;;;21.45;63.46;100807.91;5059226;28;45542;-63
2022/08/18 04:12:30;;;;;;;;;16.00;13.00;;;;;21.42;63.92;100803.72;5059326;28;45335;-65
2022/08/18 04:14:55;;;;;;;;;15.33;15.33;;;;;21.37;63.82;100789.19;5059537;28;45252;-65
2022/08/18 04:17:24;;;;;;;;;16.00;15.00;;;;;21.39;63.87;100803.31;5059089;28;45407;-64
2022/08/18 04:19:51;;;;;;;;;13.00;13.00;;;;;21.38;63.99;100807.06;5059203;28;45391;-63
2022/08/18 04:22:17;;;;;;;;;19.33;15.00;;;;;20.84;63.83;100716.34;5059178;28;45566;-63
2022/08/18 04:24:43;;;;;;;;;18.67;17.67;;;;;21.34;63.85;100789.63;5059058;28;45506;-63
2022/08/18 04:27:08;;;;;;;;;17.67;17.67;;;;;21.32;63.67;100791.72;5059125;28;46540;-65
2022/08/18 04:29:34;;;;;;;;;16.33;16.33;;;;;21.35;63.81;100805.63;5058874;28;45307;-63
2022/08/18 04:32:03;;;;;;;;;15.67;14.00;;;;;21.32;64.08;100802.53;5059283;28;45629;-64
2022/08/18 04:34:29;;;;;;;;;17.33;14.33;;;;;21.32;64.20;100806.06;5058682;28;45617;-63
2022/08/18 04:36:54;;;;;;;;;13.33;13.33;;;;;21.12;63.90;100780.91;5074362;28;45628;-64
2022/08/18 04:39:22;;;;;;;;;16.33;16.33;;;;;21.32;63.91;100827.69;5058894;28;45487;-64
2022/08/18 04:41:48;;;;;;;;;28.33;23.00;;;;;21.25;63.79;100805.25;5058865;28;45348;-64
2022/08/18 04:44:16;;;;;;;;;15.33;13.00;;;;;21.30;64.22;100818.97;5058995;28;45534;-63
2022/08/18 04:46:46;;;;;;;;;18.67;18.67;;;;;21.26;64.08;100815.03;5058589;28;45672;-63
2022/08/18 04:49:13;;;;;;;;;16.00;16.00;;;;;21.22;63.88;100802.91;5058464;28;45517;-64
2022/08/18 04:54:41;;;;;;;;;14.67;13.67;;;;;21.28;64.09;100818.34;5058787;28;45445;-63
2022/08/18 04:57:13;;;;;;;;;12.67;12.67;;;;;21.13;64.05;100793.38;5058657;28;46286;-63
2022/08/18 04:59:41;;;;;;;;;15.00;15.00;;;;;21.22;64.06;100827.25;5058238;28;45360;-64
2022/08/18 05:02:07;;;;;;;;;16.33;15.33;;;;;21.18;64.40;100829.56;5058350;28;45489;-63
2022/08/18 05:04:37;;;;;;;;;20.00;15.67;;;;;21.08;64.50;100831.06;5058517;28;45288;-63
2022/08/18 05:07:10;;;;;;;;;23.00;23.00;;;;;21.06;65.04;100830.44;5058145;28;46491;-64
2022/08/18 05:09:37;;;;;;;;;25.33;23.00;;;;;21.07;65.00;100832.09;5056909;28;45265;-64
2022/08/18 05:12:04;;;;;;;;;24.33;24.00;;;;;21.05;65.51;100834.19;5058471;28;46277;-65
2022/08/18 05:14:30;;;;;;;;;27.00;24.33;;;;;21.09;65.24;100841.66;5058418;28;45205;-64
2022/08/18 05:16:59;;;;;;;;;26.33;25.00;;;;;21.11;65.20;100849.53;5058072;28;45863;-63
2022/08/18 05:19:26;;;;;;;;;28.00;27.00;;;;;21.06;65.13;100841.25;5058106;28;45406;-66
2022/08/18 05:21:53;;;;;;;;;31.33;26.00;;;;;21.09;65.47;100847.06;5058159;28;45485;-63
2022/08/18 05:24:20;;;;;;;;;23.00;23.00;;;;;21.10;65.26;100846.00;5058256;28;45423;-64
2022/08/18 05:26:45;;;;;;;;;28.00;25.33;;;;;20.61;65.04;100768.09;5058001;28;46826;-65
2022/08/18 05:29:11;;;;;;;;;29.33;27.67;;;;;21.19;65.30;100858.25;5057870;28;45437;-64
2022/08/18 05:31:37;;;;;;;;;27.67;26.33;;;;;20.74;64.89;100773.50;5058095;28;45370;-65
2022/08/18 05:34:03;;;;;;;;;35.33;32.00;;;;;21.28;65.21;100861.63;5058364;28;45457;-64
2022/08/18 05:36:49;;;;;;;;;25.67;25.00;;;;;21.32;64.97;100852.03;5057977;28;45723;-63
2022/08/18 05:39:18;;;;;;;;;31.00;27.33;;;;;21.37;65.17;100862.22;5057628;28;45332;-64
2022/08/18 05:41:45;;;;;;;;;29.33;26.33;;;;;21.38;64.60;100859.28;5057789;28;45239;-63
2022/08/18 05:44:20;;;;;;;;;24.33;23.00;;;;;21.38;65.08;100870.09;5057428;28;45251;-63
2022/08/18 05:47:10;;;;;;;;;29.67;29.00;;;;;21.31;64.95;100865.75;5057414;28;47003;-64
2022/08/18 05:49:37;;;;;;;;;29.67;27.33;;;;;21.48;64.64;100877.78;5057391;28;45355;-65
2022/08/18 05:52:08;;;;;;;;;20.67;17.67;;;;;21.46;63.57;100875.31;5057556;28;45560;-64
2022/08/18 05:57:50;;;;;;;;;16.33;16.33;;;;;21.46;62.67;100869.06;5057443;28;45390;-65
2022/08/18 06:00:23;;;;;;;;;15.67;15.00;;;;;21.20;62.31;100821.22;5057521;28;45323;-65
2022/08/18 06:03:06;;;;;;;;;16.67;16.67;;;;;21.58;62.10;100869.22;5057853;28;45311;-63
2022/08/18 06:05:34;;;;;;;;;19.67;15.67;;;;;21.70;62.25;100890.00;5057822;28;45505;-65
2022/08/18 06:08:11;;;;;;;;;13.67;12.33;;;;;21.75;61.70;100900.19;5057237;28;47494;-65
2022/08/18 06:10:37;;;;;;;;;20.67;18.00;;;;;21.78;61.71;100888.94;5055327;28;45544;-66
2022/08/18 06:13:08;;;;;;;;;23.67;21.00;;;;;21.85;61.34;100887.03;5057401;28;45315;-63
2022/08/18 06:16:02;;;;;;;;;29.00;25.67;;;;;21.84;61.66;100871.84;5057576;28;45314;-66
2022/08/18 06:18:42;;;;;;;;;21.33;20.00;;;;;21.91;61.12;100874.50;5057234;28;46761;-64
2022/08/18 06:21:38;;;;;;;;;23.00;18.33;;;;;22.00;61.26;100867.78;5057193;28;45341;-65
2022/08/18 06:24:42;;;;;;;;;18.67;17.33;;;;;21.60;61.28;100794.91;5057332;28;45187;-63
2022/08/18 06:27:24;;;;;;;;;22.67;21.00;;;;;22.15;60.87;100880.03;5057353;28;45354;-64
2022/08/18 06:30:05;;;;;;;;;22.33;21.33;;;;;21.87;60.99;100833.53;5056473;28;46096;-66
2022/08/18 06:32:55;;;;;;;;;24.67;22.33;;;;;22.15;60.67;100855.66;5056972;28;45445;-65
2022/08/18 06:35:34;;;;;;;;;26.67;25.67;;;;;22.41;60.40;100886.34;5057009;28;45354;-64
2022/08/18 06:40:48;;;;;;;;;31.33;28.00;;;;;22.56;60.18;100864.38;5056830;28;45394;-65
2022/08/18 06:43:15;;;;;;;;;29.33;25.33;;;;;23.21;58.89;100900.97;5057004;28;45359;-64
2022/08/18 06:45:47;;;;;;;;;29.67;29.67;;;;;23.58;58.06;100885.56;5055527;28;45459;-65
2022/08/18 06:48:43;;;;;;;;;34.00;31.67;;;;;24.18;56.51;100891.09;5056677;28;45514;-64
2022/08/18 06:51:19;;;;;;;;;34.67;29.33;;;;;24.81;55.48;100895.19;5055007;28;45531;-64
2022/08/18 06:53:57;;;;;;;;;29.67;29.67;;;;;24.76;53.86;100822.50;5056482;28;45542;-65
2022/08/18 06:56:33;;;;;;;;;35.33;31.33;;;;;25.64;52.90;100919.53;5059330;28;45490;-65
2022/08/18 06:59:18;;;;;;;;;40.67;36.00;;;;;26.01;51.63;100911.03;5058654;28;45434;-65
2022/08/18 07:01:46;;;;;;;;;31.00;29.67;;;;;26.49;51.13;100907.09;5062897;28;46741;-66
2022/08/18 07:04:32;;;;;;;;;34.67;31.33;;;;;26.85;49.29;100901.19;5063226;28;45451;-64
2022/08/18 07:06:57;;;;;;;;;36.67;31.67;;;;;27.28;48.84;100916.06;5062834;28;45523;-65
2022/08/18 07:09:31;;;;;;;;;42.67;35.00;;;;;27.50;47.61;100903.28;5062841;28;45548;-65
2022/08/18 07:11:58;;;;;;;;;31.67;30.00;;;;;27.85;47.05;100904.88;5062763;28;46702;-64
2022/08/18 07:14:24;;;;;;;;;39.00;33.33;;;;;28.05;46.56;100894.19;5062790;28;45559;-64
2022/08/18 07:17:05;;;;;;;;;40.33;34.67;;;;;28.26;45.62;100883.50;5062665;28;45343;-64
2022/08/18 07:19:31;;;;;;;;;34.00;32.67;;;;;28.57;45.22;100901.00;5063211;28;45468;-67
2022/08/18 07:22:17;;;;;;;;;36.00;32.00;;;;;28.91;44.29;100901.63;5062870;28;45634;-67
2022/08/18 07:24:46;;;;;;;;;37.33;33.67;;;;;29.06;43.67;100905.31;5077974;28;45493;-66
2022/08/18 07:27:16;;;;;;;;;37.33;33.33;;;;;29.18;43.89;100902.34;5062748;28;45299;-65
2022/08/18 07:30:20;;;;;;;;;44.67;36.33;;;;;29.51;43.44;100900.41;5063287;28;45461;-65
2022/08/18 07:33:03;;;;;;;;;36.00;31.00;;;;;29.70;43.15;100904.34;5020406;28;45600;-65
2022/08/18 07:35:55;;;;;;;;;35.00;32.67;;;;;29.63;42.57;100906.47;5020422;28;45591;-64
2022/08/18 07:38:28;;;;;;;;;40.00;34.33;;;;;29.82;42.63;100904.91;5052604;28;45594;-66
2022/08/18 07:41:12;;;;;;;;;39.67;34.33;;;;;29.91;42.62;100906.06;5062552;28;45410;-67
2022/08/18 07:43:50;;;;;;;;;46.33;38.00;;;;;29.93;41.94;100912.09;5061149;28;47341;-66
2022/08/18 07:46:43;;;;;;;;;42.67;37.67;;;;;29.98;41.73;100914.84;5061041;28;45989;-64
2022/08/18 07:49:23;;;;;;;;;44.00;36.00;;;;;30.07;41.35;100917.94;5062548;28;45517;-65
2022/08/18 07:51:58;;;;;;;;;40.33;35.00;;;;;30.21;41.62;100920.97;5063078;28;45376;-65
2022/08/18 07:54:34;;;;;;;;;44.33;37.67;;;;;30.25;40.87;100878.22;5062445;28;46427;-66
2022/08/18 07:57:11;;;;;;;;;41.67;35.00;;;;;30.70;40.71;100923.31;5062443;28;45299;-65
2022/08/18 07:59:49;;;;;;;;;37.67;34.67;;;;;30.85;40.11;100904.09;5060926;28;45328;-64
2022/08/18 08:02:14;;;;;;;;;37.33;33.67;;;;;31.23;39.38;100918.34;5062397;28;45215;-64
2022/08/18 08:04:48;;;;;;;;;44.33;37.67;;;;;31.54;38.88;100913.63;5062243;28;46352;-66
2022/08/18 08:07:19;;;;;;;;;42.33;35.00;;;;;31.82;38.01;100909.44;5061340;28;45487;-64
2022/08/18 08:09:49;;;;;;;;;35.00;32.33;;;;;31.92;37.91;100890.97;5040959;28;45497;-66
2022/08/18 08:12:35;;;;;;;;;34.33;32.33;;;;;32.07;36.95;100844.13;5037562;28;45352;-66
2022/08/18 08:15:32;;;;;;;;;40.33;34.67;;;;;32.98;35.73;100905.13;5038486;28;46442;-64
2022/08/18 08:18:11;;;;;;;;;40.33;34.00;;;;;33.28;34.33;100898.50;5038583;28;45612;-65
2022/08/18 08:20:49;;;;;;;;;38.33;33.00;;;;;32.92;34.55;100772.16;5038854;28;45415;-66
2022/08/18 08:23:36;;;;;;;;;40.00;35.67;;;;;34.29;32.98;100895.63;5038964;28;45426;-65
2022/08/18 08:26:07;;;;;;;;;36.33;33.00;;;;;34.82;32.19;100895.34;5038492;28;46537;-65
2022/08/18 08:28:46;;;;;;;;;34.33;32.33;;;;;35.19;31.65;100886.16;5038268;28;45407;-65
2022/08/18 08:31:30;;;;;;;;;30.00;28.67;;;;;35.51;30.94;100875.03;5038785;28;45365;-66
2022/08/18 08:34:07;;;;;;;;;29.33;29.33;;;;;35.81;30.38;100881.88;5038872;28;45384;-64
2022/08/18 08:36:37;;;;;;;;;30.33;30.00;;;;;35.58;30.00;100797.19;5053819;28;47921;-64
2022/08/18 08:39:09;;;;;;;;;31.33;29.33;;;;;36.32;29.82;100872.47;5038422;28;45329;-66
2022/08/18 08:41:44;;;;;;;;;23.00;23.00;;;;;36.62;28.99;100870.06;5038560;28;45612;-65
2022/08/18 08:44:21;;;;;;;;;32.67;27.67;;;;;37.01;27.94;100872.94;5054212;28;45364;-65
2022/08/18 08:47:04;;;;;;;;;30.00;30.00;;;;;37.30;27.10;100869.72;5038102;28;46069;-65
2022/08/18 08:49:46;;;;;;;;;36.00;32.33;;;;;36.91;27.06;100817.81;5038178;28;45388;-65
2022/08/18 08:52:39;;;;;;;;;35.00;29.67;;;;;37.25;27.38;100891.19;5037982;28;45407;-67
2022/08/18 08:55:16;;;;;;;;;29.67;28.33;;;;;37.48;27.21;100903.88;5038393;28;45608;-65
2022/08/18 08:57:50;;;;;;;;;35.00;31.33;;;;;37.46;26.91;100878.41;5037846;28;46800;-65
2022/08/18 09:00:16;;;;;;;;;29.33;28.33;;;;;37.55;27.20;100893.13;5038160;28;45448;-65
2022/08/18 09:03:03;;;;;;;;;23.00;17.33;;;;;37.74;26.63;100890.91;5038267;28;45642;-65
2022/08/18 09:05:38;;;;;;;;;31.67;29.00;;;;;37.95;27.67;100898.63;5038485;28;45265;-64
2022/08/18 09:08:22;;;;;;;;;29.00;28.00;;;;;38.01;26.19;100894.53;5036363;28;47625;-65
2022/08/18 09:11:15;;;;;;;;;28.33;26.67;;;;;37.74;25.95;100870.69;5037987;28;45487;-65
2022/08/18 09:13:58;;;;;;;;;27.00;27.00;;;;;37.97;26.75;100915.78;5038167;28;45425;-65
2022/08/18 09:17:05;;;;;;;;;29.67;27.67;;;;;38.25;25.88;100911.59;5038300;28;45319;-65
2022/08/18 09:19:59;;;;;;;;;25.33;24.67;;;;;38.74;25.22;100908.66;5035981;28;45637;-66
2022/08/18 09:22:39;;;;;;;;;28.33;26.67;;;;;39.42;24.41;100893.72;5037828;28;45388;-65
2022/08/18 09:25:11;;;;;;;;;28.00;24.67;;;;;40.19;24.30;100897.22;5037980;28;45465;-66
2022/08/18 09:27:42;;;;;;;;;23.00;23.00;;;;;40.76;22.54;100851.16;5038124;28;45441;-65
2022/08/18 09:30:45;;;;;;;;;28.00;25.67;;;;;42.21;21.27;100911.78;5036248;28;46972;-65
2022/08/18 09:33:44;;;;;;;;;24.00;24.00;;;;;43.19;19.96;100913.34;5037598;28;45400;-65
2022/08/18 09:36:19;;;;;;;;;26.33;24.67;;;;;44.18;18.12;100907.34;5037577;28;45253;-65
2022/08/18 09:41:51;;;;;;;;;24.00;23.33;;;;;45.86;17.04;100888.78;5037275;28;45505;-65
2022/08/18 09:44:47;;;;;;;;;23.67;21.00;;;;;46.44;16.82;100904.38;5035869;28;46507;-68
2022/08/18 09:47:24;;;;;;;;;19.00;19.00;;;;;46.97;16.08;100902.97;5035963;28;45389;-66
2022/08/18 09:50:15;;;;;;;;;19.00;17.33;;;;;47.40;15.45;100902.53;5037727;28;45262;-65
2022/08/18 09:52:43;;;;;;;;;20.67;20.67;;;;;47.55;15.23;100899.47;5037059;28;46808;-65
2022/08/18 09:55:14;;;;;;;;;20.67;20.00;;;;;47.45;15.50;100896.53;5035933;28;45867;-65
2022/08/18 09:57:40;;;;;;;;;18.33;18.33;;;;;47.69;15.54;100903.59;5037390;28;45468;-65
2022/08/18 10:00:10;;;;;;;;;22.00;19.33;;;;;47.83;14.71;100898.81;5037498;28;45469;-65
2022/08/18 10:02:35;;;;;;;;;22.33;22.33;;;;;47.98;14.81;100899.75;5037167;28;45662;-66
2022/08/18 10:05:19;;;;;;;;;17.67;17.67;;;;;48.05;13.96;100898.97;5037187;28;45277;-67
2022/08/18 10:08:15;;;;;;;;;14.67;14.67;;;;;47.21;14.38;100836.84;5037460;28;45270;-65
2022/08/18 10:10:56;;;;;;;;;22.75;20.50;;;;;46.43;14.49;100883.91;5037048;28;45580;-67
2022/08/18 10:13:31;;;;;;;;;18.67;18.67;;;;;44.80;15.51;100880.16;5036594;28;45513;-65
2022/08/18 10:16:12;;;;;;;;;21.67;21.67;;;;;44.17;16.69;100869.31;5036445;28;45406;-64
2022/08/18 10:18:59;;;;;;;;;18.00;16.00;;;;;43.80;17.45;100851.25;5016524;28;45300;-65
2022/08/18 10:21:27;;;;;;;;;18.00;18.00;;;;;43.40;17.88;100849.50;5015799;28;45537;-66
2022/08/18 10:24:05;;;;;;;;;21.33;20.33;;;;;42.57;18.54;100859.75;5016988;28;46690;-64
2022/08/18 10:26:30;;;;;;;;;18.33;17.00;;;;;41.50;19.31;100858.47;5016756;28;45558;-68
2022/08/18 10:28:57;;;;;;;;;14.00;14.00;;;;;40.26;20.72;100849.34;5017374;28;45346;-65
2022/08/18 10:31:24;;;;;;;;;19.00;19.00;;;;;38.49;21.87;100763.06;5016855;28;45439;-66
2022/08/18 10:34:01;;;;;;;;;22.00;20.00;;;;;38.15;22.62;100849.97;5015396;28;49559;-66
2022/08/18 10:36:54;;;;;;;;;18.33;18.33;;;;;37.03;24.26;100842.97;5016990;28;45408;-66
2022/08/18 10:39:49;;;;;;;;;19.67;19.00;;;;;36.34;24.93;100834.22;5016796;28;45310;-66
2022/08/18 10:43:07;;;;;;;;;21.00;21.00;;;;;35.50;25.87;100818.09;5007942;28;45557;-64
2022/08/18 10:45:36;;;;;;;;;19.00;17.67;;;;;34.92;26.30;100813.16;5007369;28;47081;-65
2022/08/18 10:48:22;;;;;;;;;17.00;17.00;;;;;34.42;27.67;100843.25;5016186;28;45329;-65
2022/08/18 10:50:57;;;;;;;;;17.33;17.33;;;;;33.71;28.36;100822.22;5016678;28;45338;-65
2022/08/18 10:53:52;;;;;;;;;17.33;17.33;;;;;33.30;28.98;100821.88;5016886;28;45416;-66
2022/08/18 10:56:39;;;;;;;;;17.00;17.00;;;;;33.02;29.70;100831.00;5016416;28;45720;-66
2022/08/18 10:59:38;;;;;;;;;16.33;15.33;;;;;32.78;30.31;100833.69;5015913;28;45424;-66
2022/08/18 11:02:13;;;;;;;;;19.67;19.67;;;;;32.32;30.80;100836.84;5016696;28;45389;-66
2022/08/18 11:04:48;;;;;;;;;18.67;18.67;;;;;32.16;30.87;100841.59;5016490;28;45279;-66
2022/08/18 11:07:18;;;;;;;;;17.00;17.00;;;;;31.99;31.22;100847.47;5016107;28;46746;-66
2022/08/18 11:09:48;;;;;;;;;11.67;11.67;;;;;31.77;31.41;100825.06;5016397;28;45485;-65
2022/08/18 11:12:34;;;;;;;;;13.67;13.00;;;;;31.68;31.46;100824.81;5016347;28;45592;-66
2022/08/18 11:15:13;;;;;;;;;13.33;13.33;;;;;31.40;31.55;100795.25;5015841;28;45436;-66
2022/08/18 11:18:07;;;;;;;;;10.33;10.33;;;;;31.50;31.00;100828.19;5014464;28;46689;-65
2022/08/18 11:20:32;;;;;;;;;11.33;11.33;;;;;31.29;31.67;100832.09;5016025;28;45620;-66
2022/08/18 11:23:01;;;;;;;;;16.00;16.00;;;;;31.02;32.50;100830.47;5031658;28;46028;-66
2022/08/18 11:25:37;;;;;;;;;11.33;11.33;;;;;30.57;32.58;100828.59;5016715;28;45279;-66
2022/08/18 11:28:17;;;;;;;;;20.33;14.67;;;;;30.14;33.90;100835.41;5015945;28;45701;-67
2022/08/18 11:30:46;;;;;;;;;13.00;13.00;;;;;30.12;33.92;100843.09;5014662;28;45376;-67
2022/08/18 11:33:16;;;;;;;;;16.00;14.67;;;;;30.10;34.21;100810.47;5016440;28;45312;-68
2022/08/18 11:35:50;;;;;;;;;16.67;15.67;;;;;30.25;33.99;100824.19;5016470;28;45585;-64
2022/08/18 11:38:18;;;;;;;;;17.00;13.00;;;;;30.39;34.21;100840.94;5015887;28;45722;-66
2022/08/18 11:40:46;;;;;;;;;15.67;14.67;;;;;30.40;33.49;100815.13;5015839;28;45360;-65
2022/08/18 11:43:32;;;;;;;;;12.00;12.00;;;;;30.49;33.81;100824.47;5017180;28;45263;-65
2022/08/18 11:46:20;;;;;;;;;14.00;14.00;;;;;30.57;33.61;100825.84;5019714;28;45395;-64
2022/08/18 11:48:48;;;;;;;;;12.67;12.33;;;;;30.53;33.10;100819.25;5019078;28;45631;-65
2022/08/18 11:51:27;;;;;;;;;9.00;9.00;;;;;30.44;33.17;100827.22;5019449;28;45392;-66
2022/08/18 11:53:58;;;;;;;;;13.33;10.67;;;;;30.56;32.78;100846.16;5019589;28;45243;-65
2022/08/18 11:56:27;;;;;;;;;12.33;12.33;;;;;30.58;32.83;100846.69;5019756;28;45350;-66